Terminal Aerodrome Forecast
Issued by NWS

Home | Current Version | Previous Version | Graphics & Text | Print | Product List | Glossary On
Versions: 1 2 3 4 5 6 7 8 9 10 11 12 13 14 15 16 17
000
FTUS42 KMHX 180237 AAB
TAFPGV
TAF AMD
KPGV 180237Z 1803/1824 06005KT P6SM SKC
     FM180500 01005KT P6SM BKN007
     FM180900 01005KT 3SM BR BKN003
     FM181200 01010KT P6SM BKN003
     FM181300 01010KT P6SM BKN010
     FM181600 02010G20KT P6SM BKN020
     FM182200 01010KT P6SM BKN035
     FM182300 01010KT P6SM SCT250
      AMD LTD TO CLD VIS AND WIND=

USA.gov is the U.S. government's official web portal to all federal, state and local government web resources and services.